createdAt,value
2022-10-18T00:01:14.659Z,8.07
2022-10-18T00:06:10.824Z,7.03
2022-10-18T00:08:41.584Z,8.27
2022-10-18T00:11:10.783Z,8.00
2022-10-18T00:13:38.562Z,7.32
2022-10-18T00:16:07.176Z,7.82
2022-10-18T00:18:36.556Z,8.40
2022-10-18T00:21:06.430Z,7.53
2022-10-18T00:23:38.481Z,7.57
2022-10-18T00:26:12.101Z,7.45
2022-10-18T00:28:39.718Z,9.27
2022-10-18T00:31:18.136Z,8.02
2022-10-18T00:33:49.111Z,7.95
2022-10-18T00:36:16.929Z,8.05
2022-10-18T00:38:48.528Z,7.65
2022-10-18T00:41:18.874Z,7.15
2022-10-18T00:43:54.766Z,8.07
2022-10-18T00:46:24.042Z,6.97
2022-10-18T00:51:20.956Z,7.35
2022-10-18T00:53:49.114Z,8.18
2022-10-18T00:56:19.730Z,7.28
2022-10-18T00:58:47.805Z,6.95
2022-10-18T01:01:17.975Z,7.95
2022-10-18T01:03:45.613Z,7.18
2022-10-18T01:06:13.263Z,7.68
2022-10-18T01:08:46.007Z,7.97
2022-10-18T01:11:32.706Z,8.45
2022-10-18T01:14:04.968Z,7.20
2022-10-18T01:16:41.023Z,7.25
2022-10-18T01:19:17.843Z,7.43
2022-10-18T01:21:48.044Z,7.65
2022-10-18T01:24:34.171Z,8.40
2022-10-18T01:27:13.573Z,7.10
2022-10-18T01:29:49.036Z,8.00
2022-10-18T01:32:20.314Z,7.40
2022-10-18T01:34:49.935Z,7.80
2022-10-18T01:37:18.721Z,7.28
2022-10-18T01:39:48.268Z,7.43
2022-10-18T01:42:18.083Z,6.47
2022-10-18T01:44:50.581Z,7.10
2022-10-18T01:47:19.624Z,6.55
2022-10-18T01:49:47.115Z,6.28
2022-10-18T01:52:15.360Z,8.82
2022-10-18T01:54:45.506Z,6.32
2022-10-18T01:57:19.339Z,8.00
2022-10-18T01:59:50.766Z,7.05
2022-10-18T02:02:26.183Z,5.68
2022-10-18T02:04:55.999Z,6.25
2022-10-18T02:07:28.609Z,6.30
2022-10-18T02:10:02.218Z,6.55
2022-10-18T02:12:33.610Z,6.88
2022-10-18T02:15:10.671Z,7.13
2022-10-18T02:17:46.165Z,6.15
2022-10-18T02:20:14.487Z,6.68
2022-10-18T02:22:49.553Z,6.97
2022-10-18T02:25:19.080Z,7.25
2022-10-18T02:27:46.720Z,6.47
2022-10-18T02:30:17.963Z,6.53
2022-10-18T02:32:50.394Z,6.63
2022-10-18T02:35:20.518Z,6.65
2022-10-18T02:37:49.435Z,7.55
2022-10-18T02:40:19.857Z,7.32
2022-10-18T02:42:50.851Z,7.28
2022-10-18T02:45:18.797Z,7.07
2022-10-18T02:47:47.664Z,6.63
2022-10-18T02:50:15.584Z,6.90
2022-10-18T02:52:43.087Z,5.78
2022-10-18T02:55:12.834Z,6.40
2022-10-18T02:57:40.577Z,6.25
2022-10-18T03:00:11.770Z,6.95
2022-10-18T03:02:39.353Z,6.60
2022-10-18T03:05:13.258Z,7.05
2022-10-18T03:07:40.762Z,6.60
2022-10-18T03:10:08.757Z,6.13
2022-10-18T03:12:36.256Z,6.10
2022-10-18T03:15:03.855Z,6.53
2022-10-18T03:17:32.810Z,5.90
2022-10-18T03:20:00.576Z,5.68
2022-10-18T03:25:01.751Z,6.07
2022-10-18T03:27:29.490Z,5.82
2022-10-18T03:29:57.205Z,6.95
2022-10-18T03:32:24.691Z,6.55
2022-10-18T03:34:52.178Z,6.53
2022-10-18T03:37:19.638Z,6.38
2022-10-18T03:39:48.486Z,6.32
2022-10-18T03:42:16.007Z,6.30
2022-10-18T03:44:43.486Z,5.90
2022-10-18T03:47:11.953Z,6.32
2022-10-18T03:49:39.412Z,6.55
2022-10-18T03:52:06.970Z,6.10
2022-10-18T03:54:34.563Z,6.70
2022-10-18T03:57:03.474Z,6.97
2022-10-18T03:59:30.906Z,6.10
2022-10-18T04:01:58.488Z,5.97
2022-10-18T04:04:26.059Z,6.95
2022-10-18T04:06:53.609Z,6.65
2022-10-18T04:09:22.543Z,5.50
2022-10-18T04:11:50.887Z,6.05
2022-10-18T04:14:21.357Z,5.40
2022-10-18T04:16:50.068Z,6.13
2022-10-18T04:19:17.565Z,5.65
2022-10-18T04:21:45.116Z,5.90
2022-10-18T04:24:12.675Z,6.90
2022-10-18T04:26:40.159Z,5.57
2022-10-18T04:29:07.696Z,5.78
2022-10-18T04:31:36.589Z,6.65
2022-10-18T04:34:04.564Z,6.40
2022-10-18T04:36:32.257Z,6.07
2022-10-18T04:38:59.774Z,6.00
2022-10-18T04:41:27.262Z,6.13
2022-10-18T04:43:54.716Z,6.53
2022-10-18T04:46:22.274Z,5.82
2022-10-18T04:48:51.104Z,7.88
2022-10-18T04:51:18.627Z,5.65
2022-10-18T04:53:46.081Z,5.75
2022-10-18T04:56:13.926Z,5.78
2022-10-18T04:58:41.508Z,5.35
2022-10-18T05:01:09.180Z,5.70
2022-10-18T05:03:36.803Z,5.40
2022-10-18T05:06:06.140Z,5.97
2022-10-18T05:08:34.563Z,5.55
2022-10-18T05:11:02.575Z,4.97
2022-10-18T05:13:30.536Z,5.95
2022-10-18T05:15:59.604Z,5.70
2022-10-18T05:18:27.197Z,5.38
2022-10-18T05:20:54.760Z,5.30
2022-10-18T05:23:23.932Z,5.90
2022-10-18T05:25:51.583Z,7.07
2022-10-18T05:28:38.861Z,6.32
2022-10-18T05:31:07.600Z,5.60
2022-10-18T05:33:46.220Z,5.78
2022-10-18T05:36:37.058Z,6.30
2022-10-18T05:39:06.215Z,5.82
2022-10-18T05:41:33.960Z,6.20
2022-10-18T05:44:05.581Z,6.30
2022-10-18T05:46:33.583Z,6.22
2022-10-18T05:49:01.078Z,5.82
2022-10-18T05:51:28.566Z,5.55
2022-10-18T05:53:56.047Z,6.25
2022-10-18T05:56:26.384Z,6.43
2022-10-18T05:58:53.907Z,6.07
2022-10-18T06:01:21.409Z,5.72
2022-10-18T06:03:49.195Z,6.38
2022-10-18T06:06:16.991Z,8.10
2022-10-18T06:08:44.987Z,6.07
2022-10-18T06:11:13.401Z,6.30
2022-10-18T06:13:43.147Z,6.00
2022-10-18T06:16:13.536Z,6.53
2022-10-18T06:18:41.566Z,6.32
2022-10-18T06:21:09.718Z,6.43
2022-10-18T06:23:37.373Z,5.70
2022-10-18T06:26:06.382Z,5.60
2022-10-18T06:28:35.039Z,5.72
2022-10-18T06:31:06.497Z,5.95
2022-10-18T06:33:34.737Z,5.53
2022-10-18T06:36:03.157Z,6.25
2022-10-18T06:38:30.911Z,5.28
2022-10-18T06:40:58.801Z,6.05
2022-10-18T06:43:27.771Z,6.50
2022-10-18T06:45:55.738Z,5.35
2022-10-18T06:48:26.870Z,6.03
2022-10-18T06:50:57.509Z,5.18
2022-10-18T06:53:25.025Z,6.13
2022-10-18T06:56:02.452Z,5.18
2022-10-18T06:58:30.112Z,5.30
2022-10-18T07:01:00.583Z,4.78
2022-10-18T07:03:29.903Z,4.85
2022-10-18T07:06:01.307Z,4.60
2022-10-18T07:08:31.954Z,4.60
2022-10-18T07:10:59.750Z,5.95
2022-10-18T07:13:32.296Z,6.07
2022-10-18T07:16:06.115Z,5.07
2022-10-18T07:18:36.090Z,5.00
2022-10-18T07:21:06.826Z,4.35
2022-10-18T07:23:35.009Z,3.28
2022-10-18T07:26:02.954Z,4.45
2022-10-18T07:28:31.006Z,4.75
2022-10-18T07:31:02.405Z,4.78
2022-10-18T07:33:34.757Z,4.63
2022-10-18T07:36:03.847Z,4.80
2022-10-18T07:38:31.483Z,4.75
2022-10-18T07:40:59.027Z,5.18
2022-10-18T07:43:26.846Z,4.68
2022-10-18T07:45:54.396Z,3.88
2022-10-18T07:48:22.080Z,3.88
2022-10-18T07:50:50.969Z,5.43
2022-10-18T07:53:18.627Z,4.68
2022-10-18T07:55:46.082Z,4.13
2022-10-18T07:58:13.648Z,4.40
2022-10-18T08:00:42.160Z,4.30
2022-10-18T08:03:11.517Z,3.83
2022-10-18T08:05:39.158Z,4.60
2022-10-18T08:08:08.263Z,3.58
2022-10-18T08:10:36.188Z,4.13
2022-10-18T08:13:04.360Z,4.80
2022-10-18T08:15:31.862Z,4.78
2022-10-18T08:17:59.581Z,5.15
2022-10-18T08:20:30.844Z,4.63
2022-10-18T08:23:29.695Z,3.92
2022-10-18T08:26:04.828Z,4.75
2022-10-18T08:28:53.672Z,4.43
2022-10-18T08:31:25.995Z,4.90
2022-10-18T08:33:56.314Z,4.55
2022-10-18T08:36:23.824Z,4.38
2022-10-18T08:38:52.235Z,4.07
2022-10-18T08:41:42.842Z,4.65
2022-10-18T08:44:15.973Z,5.00
2022-10-18T08:46:45.406Z,5.20
2022-10-18T08:49:18.261Z,4.50
2022-10-18T08:51:47.791Z,4.45
2022-10-18T08:54:16.995Z,4.82
2022-10-18T08:56:47.919Z,4.18
2022-10-18T08:59:15.525Z,4.38
2022-10-18T09:04:21.814Z,4.17
2022-10-18T09:06:53.810Z,4.57
2022-10-18T09:09:26.986Z,4.28
2022-10-18T09:12:02.763Z,4.70
2022-10-18T09:14:48.609Z,4.43
2022-10-18T09:17:20.290Z,3.95
2022-10-18T09:23:54.252Z,4.22
2022-10-18T09:26:22.913Z,3.92
2022-10-18T09:29:08.603Z,3.78
2022-10-18T09:31:42.280Z,5.20
2022-10-18T09:34:21.426Z,4.25
2022-10-18T09:36:52.541Z,5.50
2022-10-18T09:39:22.471Z,3.70
2022-10-18T09:42:14.419Z,4.00
2022-10-18T09:44:54.541Z,4.30
2022-10-18T09:47:37.271Z,3.90
2022-10-18T09:50:21.616Z,4.22
2022-10-18T09:53:06.336Z,4.00
2022-10-18T09:55:36.934Z,3.60
2022-10-18T09:58:06.867Z,4.32
2022-10-18T10:00:40.251Z,3.75
2022-10-18T10:03:12.354Z,4.93
2022-10-18T10:05:40.042Z,3.70
2022-10-18T10:08:12.272Z,4.50
2022-10-18T10:10:43.548Z,3.88
2022-10-18T10:13:16.855Z,4.40
2022-10-18T10:15:53.405Z,3.95
2022-10-18T10:18:25.091Z,3.80
2022-10-18T10:20:54.491Z,3.80
2022-10-18T10:23:23.218Z,3.80
2022-10-18T10:25:52.830Z,4.50
2022-10-18T10:28:24.321Z,4.18
2022-10-18T10:30:54.206Z,3.85
2022-10-18T10:33:33.174Z,3.65
2022-10-18T10:36:04.074Z,4.00
2022-10-18T10:38:32.482Z,4.05
2022-10-18T10:41:01.577Z,3.45
2022-10-18T10:43:40.603Z,3.60
2022-10-18T10:46:17.857Z,4.07
2022-10-18T10:48:56.275Z,3.90
2022-10-18T10:51:32.724Z,3.65
2022-10-18T10:54:04.937Z,3.60
2022-10-18T10:56:34.408Z,4.05
2022-10-18T10:59:10.053Z,3.80
2022-10-18T11:01:39.893Z,3.72
2022-10-18T11:04:22.498Z,4.45
2022-10-18T11:06:52.975Z,3.60
2022-10-18T11:09:25.589Z,3.35
2022-10-18T11:12:00.896Z,4.05
2022-10-18T11:14:31.501Z,3.72
2022-10-18T11:17:07.906Z,3.45
2022-10-18T11:19:41.220Z,4.00
2022-10-18T11:25:14.382Z,3.45
2022-10-18T11:27:42.987Z,3.63
2022-10-18T11:30:37.734Z,3.40
2022-10-18T11:33:14.723Z,3.40
2022-10-18T11:35:46.893Z,3.70
2022-10-18T11:38:25.587Z,3.72
2022-10-18T11:41:00.209Z,4.20
2022-10-18T11:43:57.189Z,3.75
2022-10-18T11:46:24.085Z,2.85
2022-10-18T11:49:06.134Z,3.60
2022-10-18T11:51:50.282Z,3.75
2022-10-18T11:54:31.097Z,4.05
2022-10-18T11:57:08.466Z,3.22
2022-10-18T11:59:40.919Z,3.15
2022-10-18T12:02:20.747Z,3.63
2022-10-18T12:04:58.382Z,3.20
2022-10-18T12:07:35.762Z,3.65
2022-10-18T12:10:04.921Z,3.58
2022-10-18T12:12:33.516Z,3.42
2022-10-18T12:15:03.614Z,2.95
2022-10-18T12:17:47.690Z,3.50
2022-10-18T12:20:22.002Z,3.95
2022-10-18T12:22:51.175Z,3.45
2022-10-18T12:25:19.234Z,3.55
2022-10-18T12:27:51.350Z,3.25
2022-10-18T12:30:22.286Z,3.47
2022-10-18T12:33:03.576Z,2.97
2022-10-18T12:35:49.080Z,2.97
2022-10-18T12:38:19.012Z,2.80
2022-10-18T12:40:48.168Z,3.42
2022-10-18T12:43:18.771Z,3.25
2022-10-18T12:45:50.804Z,2.90
2022-10-18T12:48:33.487Z,3.13
2022-10-18T12:51:05.599Z,3.20
2022-10-18T12:53:33.707Z,3.28
2022-10-18T12:56:16.110Z,2.75
2022-10-18T12:58:43.669Z,3.10
2022-10-18T13:01:11.260Z,3.40
2022-10-18T13:03:51.377Z,3.20
2022-10-18T13:06:37.166Z,3.17
2022-10-18T13:09:17.964Z,3.03
2022-10-18T13:11:45.704Z,3.30
2022-10-18T13:14:44.036Z,4.28
2022-10-18T13:17:24.521Z,3.78
2022-10-18T13:20:20.436Z,3.47
2022-10-18T13:22:58.366Z,3.78
2022-10-18T13:25:31.159Z,3.13
2022-10-18T13:28:00.927Z,3.00
2022-10-18T13:30:32.211Z,3.83
2022-10-18T13:33:07.596Z,3.63
2022-10-18T13:35:55.323Z,3.63
2022-10-18T13:38:32.561Z,3.70
2022-10-18T13:41:06.073Z,3.50
2022-10-18T13:44:05.324Z,3.38
2022-10-18T13:46:47.794Z,3.58
2022-10-18T13:49:30.596Z,3.80
2022-10-18T13:52:09.931Z,3.45
2022-10-18T13:58:19.093Z,3.88
2022-10-18T14:01:01.525Z,3.38
2022-10-18T14:04:02.230Z,2.97
2022-10-18T14:06:34.542Z,3.25
2022-10-18T14:09:09.621Z,3.55
2022-10-18T14:11:49.848Z,3.88
2022-10-18T14:14:23.084Z,3.70
2022-10-18T14:16:53.821Z,3.10
2022-10-18T14:19:29.552Z,3.63
2022-10-18T14:21:59.904Z,3.10
2022-10-18T14:24:28.803Z,3.78
2022-10-18T14:27:18.443Z,3.75
2022-10-18T14:29:47.727Z,4.30
2022-10-18T14:32:25.345Z,4.00
2022-10-18T14:34:55.741Z,4.10
2022-10-18T14:37:30.211Z,4.43
2022-10-18T14:39:58.845Z,4.88
2022-10-18T14:42:27.165Z,5.00
2022-10-18T14:44:56.679Z,5.78
2022-10-18T14:47:25.212Z,5.57
2022-10-18T14:49:54.471Z,4.50
2022-10-18T14:52:26.345Z,3.97
2022-10-18T14:54:55.792Z,5.30
2022-10-18T14:57:24.448Z,4.32
2022-10-18T14:59:55.719Z,5.00
2022-10-18T15:02:25.684Z,4.75
2022-10-18T15:04:57.132Z,4.93
2022-10-18T15:07:25.420Z,4.93
2022-10-18T15:09:53.402Z,5.18
2022-10-18T15:12:20.915Z,4.88
2022-10-18T15:14:49.550Z,5.03
2022-10-18T15:17:19.491Z,4.63
2022-10-18T15:19:57.665Z,5.25
2022-10-18T15:22:32.153Z,5.40
2022-10-18T15:27:31.259Z,4.95
2022-10-18T15:30:03.270Z,4.90
2022-10-18T15:32:31.581Z,4.55
2022-10-18T15:35:10.928Z,4.57
2022-10-18T15:37:43.087Z,5.35
2022-10-18T15:40:17.431Z,5.25
2022-10-18T15:42:45.276Z,5.82
2022-10-18T15:45:32.617Z,5.53
2022-10-18T15:48:01.629Z,5.38
2022-10-18T15:50:41.171Z,4.95
2022-10-18T15:53:24.310Z,5.68
2022-10-18T15:55:53.566Z,6.03
2022-10-18T15:58:23.069Z,4.90
2022-10-18T16:00:51.339Z,5.85
2022-10-18T16:03:19.828Z,5.57
2022-10-18T16:05:49.142Z,5.43
2022-10-18T16:08:20.089Z,5.25
2022-10-18T16:10:51.677Z,6.40
2022-10-18T16:13:21.598Z,5.60
2022-10-18T16:15:49.496Z,7.53
2022-10-18T16:18:18.328Z,7.50
2022-10-18T16:20:46.612Z,6.10
2022-10-18T16:23:20.218Z,7.57
2022-10-18T16:25:50.059Z,6.97
2022-10-18T16:28:18.496Z,7.28
2022-10-18T16:30:50.158Z,8.35
2022-10-18T16:33:20.704Z,8.27
2022-10-18T16:35:49.374Z,8.00
2022-10-18T16:38:24.536Z,9.20
2022-10-18T16:40:52.195Z,8.23
2022-10-18T16:43:19.799Z,9.20
2022-10-18T16:45:47.906Z,8.30
2022-10-18T16:48:18.117Z,9.20
2022-10-18T16:50:47.164Z,8.45
2022-10-18T16:53:15.060Z,8.55
2022-10-18T16:55:46.182Z,8.32
2022-10-18T16:58:15.791Z,8.07
2022-10-18T17:00:43.328Z,8.05
2022-10-18T17:03:11.035Z,7.57
2022-10-18T17:05:38.751Z,8.40
2022-10-18T17:08:07.468Z,8.35
2022-10-18T17:10:35.203Z,8.15
2022-10-18T17:13:06.494Z,8.90
2022-10-18T17:15:35.187Z,8.73
2022-10-18T17:18:04.117Z,7.88
2022-10-18T17:20:31.809Z,8.63
2022-10-18T17:23:03.304Z,7.70
2022-10-18T17:25:42.782Z,8.63
2022-10-18T17:28:35.646Z,7.50
2022-10-18T17:31:14.801Z,8.65
2022-10-18T17:33:42.365Z,7.57
2022-10-18T17:36:10.260Z,8.10
2022-10-18T17:38:38.060Z,6.72
2022-10-18T17:41:07.416Z,7.60
2022-10-18T17:43:37.433Z,7.53
2022-10-18T17:46:05.375Z,7.95
2022-10-18T17:48:32.838Z,7.28
2022-10-18T17:51:00.854Z,7.65
2022-10-18T17:53:29.314Z,7.68
2022-10-18T17:56:02.565Z,6.55
2022-10-18T17:58:30.546Z,7.00
2022-10-18T18:01:02.647Z,7.70
2022-10-18T18:04:18.689Z,7.18
2022-10-18T18:06:51.559Z,9.20
2022-10-18T18:09:19.183Z,7.80
2022-10-18T18:11:48.234Z,7.38
2022-10-18T18:14:16.318Z,6.85
2022-10-18T18:16:47.179Z,7.55
2022-10-18T18:19:15.363Z,6.93
2022-10-18T18:21:45.595Z,7.50
2022-10-18T18:24:17.194Z,6.25
2022-10-18T18:26:47.745Z,6.55
2022-10-18T18:29:15.281Z,6.30
2022-10-18T18:31:52.399Z,6.70
2022-10-18T18:34:22.142Z,6.15
2022-10-18T18:36:51.969Z,6.72
2022-10-18T18:39:21.415Z,7.30
2022-10-18T18:41:50.251Z,5.88
2022-10-18T18:44:20.511Z,6.03
2022-10-18T18:46:53.953Z,6.00
2022-10-18T18:49:23.484Z,5.73
2022-10-18T18:51:51.001Z,5.68
2022-10-18T18:54:18.525Z,6.70
2022-10-18T18:56:46.054Z,5.90
2022-10-18T18:59:16.588Z,6.18
2022-10-18T19:01:44.775Z,5.30
2022-10-18T19:04:14.303Z,5.88
2022-10-18T19:06:43.491Z,5.72
2022-10-18T19:09:18.782Z,5.68
2022-10-18T19:11:54.995Z,6.00
2022-10-18T19:14:29.110Z,5.68
2022-10-18T19:16:59.498Z,6.03
2022-10-18T19:19:29.278Z,5.65
2022-10-18T19:22:00.419Z,6.15
2022-10-18T19:24:28.795Z,5.32
2022-10-18T19:26:57.321Z,5.97
2022-10-18T19:29:26.024Z,5.07
2022-10-18T19:31:54.430Z,5.80
2022-10-18T19:34:22.937Z,5.75
2022-10-18T19:36:59.552Z,5.40
2022-10-18T19:39:29.959Z,4.90
2022-10-18T19:41:58.852Z,5.75
2022-10-18T19:44:31.338Z,5.15
2022-10-18T19:47:02.174Z,5.47
2022-10-18T19:49:36.454Z,5.05
2022-10-18T19:54:32.693Z,4.78
2022-10-18T19:57:11.687Z,5.57
2022-10-18T20:02:13.813Z,5.68
2022-10-18T20:04:41.355Z,4.88
2022-10-18T20:07:08.893Z,5.80
2022-10-18T20:09:39.926Z,5.80
2022-10-18T20:12:08.497Z,4.85
2022-10-18T20:14:37.792Z,5.65
2022-10-18T20:17:23.407Z,5.50
2022-10-18T20:19:51.199Z,5.53
2022-10-18T20:22:18.709Z,5.63
2022-10-18T20:24:50.398Z,5.50
2022-10-18T20:27:18.110Z,5.13
2022-10-18T20:29:45.602Z,6.28
2022-10-18T20:32:13.247Z,6.00
2022-10-18T20:34:40.986Z,5.40
2022-10-18T20:37:11.274Z,4.90
2022-10-18T20:39:40.459Z,4.90
2022-10-18T20:42:09.317Z,5.57
2022-10-18T20:44:38.891Z,5.32
2022-10-18T20:47:06.495Z,5.20
2022-10-18T20:49:34.072Z,5.10
2022-10-18T20:52:01.739Z,6.22
2022-10-18T20:54:29.262Z,5.80
2022-10-18T20:56:56.785Z,5.13
2022-10-18T20:59:25.651Z,5.80
2022-10-18T21:01:53.227Z,6.20
2022-10-18T21:04:20.795Z,6.05
2022-10-18T21:06:49.638Z,5.70
2022-10-18T21:09:18.277Z,5.57
2022-10-18T21:11:46.866Z,6.38
2022-10-18T21:14:15.179Z,4.57
2022-10-18T21:16:44.320Z,5.57
2022-10-18T21:19:13.180Z,5.68
2022-10-18T21:21:55.759Z,6.15
2022-10-18T21:24:35.739Z,5.82
2022-10-18T21:27:04.884Z,5.45
2022-10-18T21:29:32.416Z,5.75
2022-10-18T21:32:06.085Z,5.25
2022-10-18T21:34:35.747Z,5.38
2022-10-18T21:37:03.288Z,6.35
2022-10-18T21:39:31.199Z,5.50
2022-10-18T21:41:58.847Z,5.90
2022-10-18T21:44:33.726Z,5.93
2022-10-18T21:47:05.453Z,6.35
2022-10-18T21:49:35.208Z,5.88
2022-10-18T21:52:05.500Z,6.10
2022-10-18T21:54:33.172Z,6.65
2022-10-18T21:57:01.168Z,6.47
2022-10-18T21:59:29.921Z,6.65
2022-10-18T22:01:57.411Z,5.93
2022-10-18T22:04:29.411Z,6.25
2022-10-18T22:06:58.168Z,6.55
2022-10-18T22:09:31.516Z,6.30
2022-10-18T22:11:59.047Z,6.83
2022-10-18T22:14:28.107Z,6.40
2022-10-18T22:16:55.618Z,6.93
2022-10-18T22:19:23.117Z,6.50
2022-10-18T22:21:52.087Z,7.18
2022-10-18T22:24:19.676Z,6.30
2022-10-18T22:26:47.422Z,7.28
2022-10-18T22:29:19.316Z,7.15
2022-10-18T22:31:50.187Z,6.38
2022-10-18T22:34:19.078Z,6.35
2022-10-18T22:36:46.699Z,7.45
2022-10-18T22:39:15.620Z,6.95
2022-10-18T22:41:43.260Z,6.95
2022-10-18T22:44:12.583Z,6.25
2022-10-18T22:46:40.081Z,6.10
2022-10-18T22:49:07.840Z,7.03
2022-10-18T22:54:02.956Z,6.43
2022-10-18T22:56:31.762Z,6.65
2022-10-18T22:58:59.278Z,6.88
2022-10-18T23:01:26.774Z,6.53
2022-10-18T23:03:54.877Z,6.05
2022-10-18T23:06:23.760Z,5.93
2022-10-18T23:08:51.382Z,7.03
2022-10-18T23:11:19.233Z,6.68
2022-10-18T23:13:48.424Z,6.72
2022-10-18T23:16:16.559Z,6.32
2022-10-18T23:18:44.243Z,7.93
2022-10-18T23:21:12.771Z,7.47
2022-10-18T23:23:41.197Z,6.43
2022-10-18T23:26:09.731Z,5.72
2022-10-18T23:28:37.918Z,5.78
2022-10-18T23:31:11.072Z,6.07
2022-10-18T23:33:38.642Z,6.72
2022-10-18T23:36:07.124Z,6.30
2022-10-18T23:38:35.207Z,6.15
2022-10-18T23:41:02.742Z,6.43
2022-10-18T23:43:30.329Z,6.80
2022-10-18T23:45:57.874Z,5.85
2022-10-18T23:48:27.088Z,5.88
2022-10-18T23:50:54.659Z,5.72
2022-10-18T23:53:22.505Z,6.00
2022-10-18T23:55:50.828Z,6.15
2022-10-18T23:58:18.330Z,6.10
